Time;durP1;ratioP1;P1;durP2;ratioP2;P2;SDS_P1;SDS_P2;PMS_P1;PMS_P2;Temp;Humidity;BMP_temperature;BMP_pressure;BME280_temperature;BME280_humidity;BME280_pressure;Samples;Min_cycle;Max_cycle;Signal;HPM_P1;HPM_P2
2021/11/16 00:00:44;;;;;;;48.80;24.88;;;6.20;99.90;;;6.72;100.00;101387.22;5033168;28;20036;-80
2021/11/16 00:03:11;;;;;;;49.13;24.98;;;6.20;99.90;;;6.69;100.00;101390.63;5048106;28;20033;-81
2021/11/16 00:05:39;;;;;;;52.63;25.27;;;6.20;99.90;;;6.68;100.00;101394.53;5044679;28;20108;-79
2021/11/16 00:08:07;;;;;;;50.00;24.55;;;6.20;99.90;;;6.71;100.00;101398.66;5034609;28;20026;-77
2021/11/16 00:10:37;;;;;;;47.40;23.77;;;6.20;99.90;;;6.72;100.00;101391.94;5033391;28;20029;-81
2021/11/16 00:13:10;;;;;;;47.92;24.98;;;6.20;99.90;;;6.71;100.00;101398.66;5017222;28;20042;-81
2021/11/16 00:15:45;;;;;;;45.00;23.80;;;6.20;99.90;;;6.70;100.00;101397.84;5026409;28;20045;-80
2021/11/16 00:18:16;;;;;;;50.38;25.65;;;6.10;99.90;;;6.69;100.00;101390.63;5042090;28;20017;-80
2021/11/16 00:20:44;;;;;;;52.95;25.15;;;6.20;99.90;;;6.71;100.00;101393.91;5034118;28;20026;-78
2021/11/16 00:23:21;;;;;;;48.72;24.27;;;6.10;99.90;;;6.75;100.00;101394.09;5033287;28;20021;-78
2021/11/16 00:25:55;;;;;;;47.90;23.67;;;6.20;99.90;;;6.73;100.00;101385.28;5031053;28;20697;-80
2021/11/16 00:28:23;;;;;;;52.28;24.90;;;6.20;99.90;;;6.73;100.00;101388.88;5032315;28;20028;-79
2021/11/16 00:30:53;;;;;;;50.83;25.40;;;6.20;99.90;;;6.74;100.00;101382.16;5014858;28;20022;-78
2021/11/16 00:33:21;;;;;;;47.85;22.55;;;6.20;99.90;;;6.78;100.00;101380.41;5031058;28;20041;-79
2021/11/16 00:35:49;;;;;;;48.58;25.15;;;6.20;99.90;;;6.82;100.00;101383.38;5030719;28;20033;-77
2021/11/16 00:38:18;;;;;;;48.50;25.10;;;6.20;99.90;;;6.82;100.00;101375.88;5030458;28;20040;-79
2021/11/16 00:40:46;;;;;;;45.92;23.27;;;6.20;99.90;;;6.86;100.00;101379.66;5032142;28;20124;-79
2021/11/16 00:43:13;;;;;;;48.97;23.77;;;6.30;99.90;;;6.66;100.00;101365.44;5014505;28;20033;-78
2021/11/16 00:45:44;;;;;;;55.03;26.40;;;6.30;99.90;;;6.67;100.00;101370.69;5030835;28;20069;-76
2021/11/16 00:48:11;;;;;;;50.00;23.25;;;6.30;99.90;;;6.81;100.00;101370.63;5030924;28;20056;-77
2021/11/16 00:50:43;;;;;;;49.50;25.42;;;6.30;99.90;;;6.88;100.00;101368.22;5032160;28;20021;-77
2021/11/16 00:53:11;;;;;;;50.33;25.85;;;6.20;99.90;;;6.82;100.00;101363.94;5015407;28;20557;-78
2021/11/16 00:55:38;;;;;;;50.40;25.20;;;6.30;99.90;;;6.76;100.00;101356.88;5032881;28;20436;-77
2021/11/16 00:58:04;;;;;;;48.58;24.90;;;6.20;99.90;;;6.74;100.00;101364.72;5033374;28;20535;-79
2021/11/16 01:00:31;;;;;;;52.80;23.90;;;6.20;99.90;;;6.77;100.00;101361.31;5033058;28;20056;-78
2021/11/16 01:02:58;;;;;;;53.15;27.67;;;6.20;99.90;;;6.75;100.00;101364.38;5033451;28;20029;-79
2021/11/16 01:05:24;;;;;;;50.45;25.65;;;6.20;99.90;;;6.70;100.00;101358.97;5036759;28;20080;-79
2021/11/16 01:07:50;;;;;;;49.17;24.00;;;6.20;99.90;;;6.72;100.00;101359.47;5037843;28;20030;-79
2021/11/16 01:10:20;;;;;;;57.65;26.45;;;6.20;99.90;;;6.74;100.00;101353.59;5021011;28;20049;-77
2021/11/16 01:12:47;;;;;;;50.40;24.02;;;6.20;99.90;;;6.73;100.00;101361.13;5000499;28;20045;-79
2021/11/16 01:15:17;;;;;;;50.85;24.98;;;6.10;99.90;;;6.68;100.00;101365.94;5015914;28;20029;-78
2021/11/16 01:17:45;;;;;;;57.92;28.48;;;6.10;99.90;;;6.68;100.00;101361.22;5018285;28;20091;-78
2021/11/16 01:20:15;;;;;;;49.58;24.05;;;6.10;99.90;;;6.63;100.00;101358.56;5000595;28;20160;-79
2021/11/16 01:22:43;;;;;;;51.97;26.20;;;6.10;99.90;;;6.65;100.00;101352.69;5016770;28;20042;-77
2021/11/16 01:25:12;;;;;;;54.72;24.95;;;6.10;99.90;;;6.63;100.00;101346.66;5018422;28;20045;-79
2021/11/16 01:27:39;;;;;;;52.03;26.67;;;6.10;99.90;;;6.65;100.00;101344.38;5016981;28;20042;-80
2021/11/16 01:30:12;;;;;;;53.83;26.13;;;6.10;99.90;;;6.53;100.00;101335.78;5016209;28;20036;-80
2021/11/16 01:32:46;;;;;;;52.53;25.23;;;6.10;99.90;;;6.50;100.00;101337.25;5017760;28;20026;-79
2021/11/16 01:35:15;;;;;;;61.90;28.58;;;6.10;99.90;;;6.51;100.00;101341.66;5017146;28;20377;-79
2021/11/16 01:37:44;;;;;;;55.22;25.60;;;6.10;99.90;;;6.54;100.00;101340.22;5019000;28;20408;-80
2021/11/16 01:40:17;;;;;;;56.20;27.60;;;6.10;99.90;;;6.61;100.00;101338.66;5000793;28;20068;-80
2021/11/16 01:42:50;;;;;;;57.67;26.67;;;6.10;99.90;;;6.61;100.00;101329.50;5019277;28;20025;-80
2021/11/16 01:45:18;;;;;;;55.28;27.00;;;6.10;99.90;;;6.54;100.00;101329.94;5017636;28;20096;-78
2021/11/16 01:47:46;;;;;;;57.13;27.77;;;6.10;99.90;;;6.58;100.00;101330.13;5017616;28;20059;-79
2021/11/16 01:50:17;;;;;;;58.55;27.58;;;6.10;99.90;;;6.64;100.00;101331.66;5019851;28;20097;-80
2021/11/16 01:52:43;;;;;;;53.13;25.27;;;6.10;99.90;;;6.68;100.00;101329.84;5015938;28;20030;-78
2021/11/16 01:55:15;;;;;;;50.50;24.92;;;6.10;99.90;;;6.70;100.00;101322.88;5015292;28;20080;-77
2021/11/16 01:57:41;;;;;;;55.03;25.45;;;6.10;99.90;;;6.71;100.00;101326.47;5014808;28;20049;-78
2021/11/16 02:00:21;;;;;;;58.47;28.13;;;6.10;99.90;;;6.67;100.00;101323.50;5014236;28;20446;-79
2021/11/16 02:02:47;;;;;;;55.35;26.33;;;6.10;99.90;;;6.66;100.00;101319.09;4998743;28;20550;-76
2021/11/16 02:05:13;;;;;;;56.38;27.00;;;6.10;99.90;;;6.58;100.00;101328.16;5013951;28;20074;-78
2021/11/16 02:07:47;;;;;;;51.40;24.05;;;6.10;99.90;;;6.62;100.00;101325.56;5012498;28;20447;-77
2021/11/16 02:10:15;;;;;;;55.33;25.73;;;6.10;99.90;;;6.54;100.00;101320.78;5030025;28;20045;-77
2021/11/16 02:12:41;;;;;;;53.50;26.17;;;6.00;99.90;;;6.56;100.00;101319.34;5033580;28;20028;-77
2021/11/16 02:15:09;;;;;;;50.53;25.15;;;6.00;99.90;;;6.56;100.00;101312.94;5033835;28;20033;-78
2021/11/16 02:17:37;;;;;;;56.22;26.33;;;6.00;99.90;;;6.54;100.00;101310.50;5033589;28;20044;-79
2021/11/16 02:20:07;;;;;;;52.20;24.48;;;6.00;99.90;;;6.59;100.00;101310.38;4999886;28;20049;-78
2021/11/16 02:22:34;;;;;;;52.42;25.85;;;6.00;99.90;;;6.54;100.00;101310.50;5033033;28;20037;-77
2021/11/16 02:25:01;;;;;;;48.08;24.33;;;6.00;99.90;;;6.52;100.00;101306.41;5032079;28;20029;-77
2021/11/16 02:27:27;;;;;;;55.92;26.17;;;6.00;99.90;;;6.49;100.00;101302.28;5016866;28;20037;-78
2021/11/16 02:29:53;;;;;;;49.70;23.95;;;6.00;99.90;;;6.53;100.00;101296.94;5032650;28;20029;-81
2021/11/16 02:32:19;;;;;;;49.22;24.63;;;6.00;99.90;;;6.55;100.00;101294.69;5032959;28;20025;-77
2021/11/16 02:34:46;;;;;;;54.15;25.30;;;6.00;99.90;;;6.56;100.00;101305.44;5033731;28;20026;-79
2021/11/16 02:37:12;;;;;;;54.15;27.13;;;6.00;99.90;;;6.60;100.00;101297.31;5034387;28;20029;-76
2021/11/16 02:39:38;;;;;;;47.85;24.67;;;6.00;99.90;;;6.61;100.00;101297.00;5032015;28;20503;-78
2021/11/16 02:42:06;;;;;;;53.92;26.92;;;6.00;99.90;;;6.60;100.00;101291.78;5032960;28;20060;-79
2021/11/16 02:44:32;;;;;;;51.80;25.38;;;6.00;99.90;;;6.59;100.00;101292.91;5032826;28;20151;-78
2021/11/16 02:46:58;;;;;;;46.53;24.15;;;6.00;99.90;;;6.59;100.00;101293.72;5032881;28;20528;-78
2021/11/16 02:49:24;;;;;;;39.45;21.08;;;6.00;99.90;;;6.57;100.00;101287.69;5032864;28;20024;-78
2021/11/16 02:51:50;;;;;;;47.15;21.58;;;6.00;99.90;;;6.58;100.00;101280.16;5033104;28;20021;-77
2021/11/16 02:54:20;;;;;;;43.40;22.70;;;6.00;99.90;;;6.58;100.00;101292.06;5032937;28;20048;-77
2021/11/16 02:56:48;;;;;;;44.00;22.55;;;6.00;99.90;;;6.58;100.00;101272.63;5032019;28;20053;-77
2021/11/16 02:59:17;;;;;;;45.08;22.50;;;6.00;99.90;;;6.61;100.00;101276.75;5015450;28;20033;-76
2021/11/16 03:01:43;;;;;;;49.35;22.23;;;6.00;99.90;;;6.57;100.00;101279.34;5032861;28;20033;-78
2021/11/16 03:04:22;;;;;;;37.58;20.27;;;6.00;99.90;;;6.50;100.00;101280.91;5032691;28;20113;-77
2021/11/16 03:06:48;;;;;;;37.10;21.05;;;6.00;99.90;;;6.49;100.00;101293.97;5033269;28;20358;-75
2021/11/16 03:09:14;;;;;;;39.33;20.20;;;6.00;99.90;;;6.51;100.00;101286.16;5024463;28;20084;-75
2021/11/16 03:11:40;;;;;;;37.60;20.02;;;6.00;99.90;;;6.47;100.00;101284.31;5013264;28;20068;-77
2021/11/16 03:14:06;;;;;;;39.58;19.00;;;6.00;99.90;;;6.45;100.00;101278.28;5012936;28;20037;-78
2021/11/16 03:16:33;;;;;;;34.58;18.17;;;6.00;99.90;;;6.38;100.00;101278.72;5013041;28;20437;-78
2021/11/16 03:19:00;;;;;;;33.20;19.27;;;6.00;99.90;;;6.38;100.00;101281.50;5012800;28;20041;-79
2021/11/16 03:21:27;;;;;;;35.80;19.27;;;5.90;99.90;;;6.36;100.00;101280.97;5012860;28;20030;-78
2021/11/16 03:23:56;;;;;;;30.40;16.58;;;5.90;99.90;;;6.34;100.00;101266.59;5012735;28;20050;-79
2021/11/16 03:26:25;;;;;;;35.08;18.80;;;5.90;99.90;;;6.48;100.00;101267.38;5011088;28;20031;-77
2021/11/16 03:28:53;;;;;;;33.42;17.60;;;5.90;99.90;;;6.50;100.00;101258.72;5012362;28;20033;-79
2021/11/16 03:31:36;;;;;;;35.00;19.05;;;5.90;99.90;;;6.42;100.00;101268.63;5023085;28;20018;-81
2021/11/16 03:34:03;;;;;;;35.67;18.35;;;5.90;99.90;;;6.47;100.00;101264.91;5030445;28;20041;-80
2021/11/16 03:36:29;;;;;;;28.88;16.10;;;5.90;99.90;;;6.49;100.00;101271.75;5026723;28;20412;-77
2021/11/16 03:39:00;;;;;;;36.20;18.35;;;5.90;99.90;;;6.47;100.00;101257.41;5013093;28;20448;-79
2021/11/16 03:41:28;;;;;;;30.92;16.92;;;5.90;99.90;;;6.43;100.00;101270.25;5011296;28;20029;-79
2021/11/16 03:43:54;;;;;;;35.80;20.08;;;5.90;99.90;;;6.49;100.00;101259.84;5012293;28;20026;-77
2021/11/16 03:46:23;;;;;;;32.70;18.52;;;5.90;99.90;;;6.54;100.00;101249.44;5012426;28;20113;-79
2021/11/16 03:48:49;;;;;;;32.63;16.85;;;5.90;99.90;;;6.54;100.00;101255.00;5011464;28;20048;-79
2021/11/16 03:51:15;;;;;;;31.55;17.10;;;5.90;99.90;;;6.52;100.00;101270.34;5012831;28;20030;-78
2021/11/16 03:53:42;;;;;;;31.15;16.00;;;5.90;99.90;;;6.51;100.00;101265.91;5012573;28;20084;-80
2021/11/16 03:56:08;;;;;;;34.67;19.05;;;5.90;99.90;;;6.50;100.00;101265.09;5011489;28;20034;-77
2021/11/16 03:58:36;;;;;;;32.95;18.88;;;5.90;99.90;;;6.52;100.00;101264.78;5013433;28;20052;-77
2021/11/16 04:01:08;;;;;;;34.28;18.45;;;5.90;99.90;;;6.52;100.00;101262.81;5014379;28;20030;-77
2021/11/16 04:03:39;;;;;;;31.88;17.25;;;5.90;99.90;;;6.52;100.00;101260.03;5019787;28;20030;-79
2021/11/16 04:06:07;;;;;;;34.30;18.98;;;5.90;99.90;;;6.51;100.00;101254.81;5029292;28;20116;-79
2021/11/16 04:08:34;;;;;;;34.70;18.52;;;5.90;99.90;;;6.52;100.00;101254.47;5021545;28;20068;-78
2021/11/16 04:11:02;;;;;;;37.50;21.10;;;5.90;99.90;;;6.55;100.00;101256.63;5031525;28;20108;-78
2021/11/16 04:13:28;;;;;;;33.58;17.77;;;5.90;99.90;;;6.53;100.00;101252.53;5020255;28;20033;-79
2021/11/16 04:15:54;;;;;;;33.88;19.67;;;5.90;99.90;;;6.52;100.00;101262.81;5047723;28;20038;-79
2021/11/16 04:18:23;;;;;;;29.92;17.38;;;5.90;99.90;;;6.53;100.00;101263.63;5047932;28;20029;-79
2021/11/16 04:20:55;;;;;;;32.75;18.33;;;5.90;99.90;;;6.53;100.00;101260.84;5033893;28;20060;-80
2021/11/16 04:23:25;;;;;;;28.85;16.52;;;5.90;99.90;;;6.51;100.00;101258.41;4998958;28;20063;-77
2021/11/16 04:25:53;;;;;;;35.63;19.15;;;5.90;99.90;;;6.55;100.00;101262.16;5036069;28;20033;-78
2021/11/16 04:28:21;;;;;;;34.17;19.05;;;5.90;99.90;;;6.55;100.00;101256.63;5028349;28;20026;-78
2021/11/16 04:30:50;;;;;;;38.33;19.75;;;5.90;99.90;;;6.55;100.00;101259.41;5041907;28;20029;-79
2021/11/16 04:33:19;;;;;;;32.67;19.00;;;5.90;99.90;;;6.54;100.00;101259.72;5033710;28;20389;-78
2021/11/16 04:35:45;;;;;;;34.42;18.73;;;6.00;99.90;;;6.56;100.00;101255.50;5031165;28;20026;-78
2021/11/16 04:38:17;;;;;;;31.85;17.45;;;6.00;99.90;;;6.56;100.00;101254.66;5044559;28;20025;-81
2021/11/16 04:40:53;;;;;;;33.42;17.73;;;6.00;99.90;;;6.56;100.00;101258.28;5042159;28;20128;-79
2021/11/16 04:43:24;;;;;;;37.28;20.17;;;6.00;99.90;;;6.57;100.00;101261.88;5041350;28;20029;-79
2021/11/16 04:45:56;;;;;;;33.85;19.63;;;6.00;99.90;;;6.57;100.00;101262.69;5037410;28;20457;-79
2021/11/16 05:04:53;;;;;;;34.73;18.87;;;6.00;99.90;;;6.55;100.00;101264.16;5036276;28;20083;-78
2021/11/16 05:07:23;;;;;;;38.17;20.70;;;5.90;99.90;;;6.54;100.00;101262.50;5036145;28;20029;-77
2021/11/16 05:09:55;;;;;;;38.05;20.58;;;5.90;99.90;;;6.54;100.00;101262.50;5034768;28;20026;-78
2021/11/16 05:12:26;;;;;;;33.88;18.92;;;5.90;99.90;;;6.54;100.00;101260.56;5035347;28;20026;-77
2021/11/16 05:14:55;;;;;;;35.03;18.38;;;5.90;99.90;;;6.54;100.00;101266.09;5017892;28;20033;-77
2021/11/16 05:17:21;;;;;;;33.97;19.30;;;5.90;99.90;;;6.51;100.00;101258.41;5036020;28;20086;-76
2021/11/16 05:19:47;;;;;;;37.75;20.85;;;5.90;99.90;;;6.50;100.00;101258.72;5034590;28;20034;-78
2021/11/16 05:22:14;;;;;;;32.58;19.20;;;5.90;99.90;;;6.51;100.00;101257.59;5034577;28;20025;-77
2021/11/16 05:24:40;;;;;;;35.83;20.20;;;5.90;99.90;;;6.52;100.00;101256.47;5034850;28;20036;-77
2021/11/16 05:27:08;;;;;;;34.35;19.48;;;5.90;99.90;;;6.51;100.00;101268.69;5035650;28;20408;-79
2021/11/16 05:29:35;;;;;;;36.85;19.50;;;5.90;99.90;;;6.51;100.00;101254.81;5040687;28;20030;-78
2021/11/16 05:32:00;;;;;;;36.85;18.75;;;5.90;99.90;;;6.52;100.00;101256.47;5043430;28;20101;-80
2021/11/16 05:34:26;;;;;;;36.72;20.40;;;5.90;99.90;;;6.53;100.00;101253.34;5038064;28;20168;-78
2021/11/16 05:36:52;;;;;;;38.78;19.38;;;5.90;99.90;;;6.50;100.00;101259.53;5036925;28;20099;-78
2021/11/16 05:39:19;;;;;;;34.03;19.75;;;5.90;99.90;;;6.49;100.00;101262.63;5035890;28;20029;-79
2021/11/16 05:41:47;;;;;;;36.35;18.85;;;5.90;99.90;;;6.47;100.00;101251.03;5034631;28;20041;-78
2021/11/16 05:44:15;;;;;;;39.20;19.45;;;5.90;99.90;;;6.50;100.00;101250.38;5034613;28;20093;-78
2021/11/16 05:46:42;;;;;;;36.67;19.60;;;5.90;99.90;;;6.50;100.00;101254.00;5035809;28;20041;-75
2021/11/16 05:49:10;;;;;;;33.25;17.92;;;5.90;99.90;;;6.51;100.00;101254.81;5036329;28;20017;-78
2021/11/16 05:51:36;;;;;;;35.25;17.90;;;5.90;99.90;;;6.52;100.00;101254.47;5035029;28;20026;-77
2021/11/16 05:54:03;;;;;;;37.10;18.42;;;5.90;99.90;;;6.52;100.00;101248.94;5035683;28;20500;-77
2021/11/16 05:56:36;;;;;;;34.33;19.23;;;5.90;99.90;;;6.54;100.00;101256.94;5035271;28;20309;-77
2021/11/16 05:59:04;;;;;;;38.63;20.45;;;5.90;99.90;;;6.59;100.00;101259.59;5040525;28;20056;-76
2021/11/16 06:01:35;;;;;;;36.13;18.80;;;5.90;99.90;;;6.58;100.00;101252.41;5039239;28;20060;-78
2021/11/16 06:04:01;;;;;;;34.78;20.35;;;5.90;99.90;;;6.55;100.00;101253.06;5035085;28;20381;-77
2021/11/16 06:06:31;;;;;;;33.13;18.42;;;5.90;99.90;;;6.55;100.00;101262.16;5037011;28;20049;-76
2021/11/16 06:09:03;;;;;;;36.47;19.58;;;5.90;99.90;;;6.53;100.00;101255.31;4998982;28;20105;-79
2021/11/16 06:13:58;;;;;;;37.92;20.48;;;5.90;99.90;;;6.56;100.00;101268.53;5034673;28;20052;-82
2021/11/16 06:16:25;;;;;;;35.45;19.15;;;5.90;99.90;;;6.55;100.00;101262.16;5035040;28;20037;-80
2021/11/16 06:19:05;;;;;;;36.17;20.20;;;5.90;99.90;;;6.54;100.00;101276.38;5019729;28;20065;-83
2021/11/16 06:21:31;;;;;;;43.35;21.50;;;5.90;99.90;;;6.53;100.00;101255.31;5019963;28;20124;-84
2021/11/16 06:23:58;;;;;;;36.78;19.33;;;5.90;99.90;;;6.54;100.00;101265.28;5019316;28;20071;-82
2021/11/16 06:26:31;;;;;;;42.53;21.83;;;5.90;99.90;;;6.53;100.00;101263.63;5038003;28;20034;-83
2021/11/16 06:28:57;;;;;;;38.97;20.42;;;5.90;99.90;;;6.56;100.00;101263.81;5019815;28;20167;-82
2021/11/16 06:31:26;;;;;;;37.55;21.35;;;5.90;99.90;;;6.55;100.00;101261.38;5040549;28;20057;-81
2021/11/16 06:33:59;;;;;;;43.72;20.77;;;5.90;99.90;;;6.54;100.00;101257.78;5034672;28;20064;-82
2021/11/16 06:36:37;;;;;;;38.17;19.00;;;5.90;99.90;;;6.53;100.00;101263.63;5016730;28;20148;-81
2021/11/16 06:39:14;;;;;;;36.78;19.05;;;5.90;99.90;;;6.55;100.00;101264.94;5018464;28;20033;-79
2021/11/16 06:41:42;;;;;;;39.75;19.52;;;6.00;99.90;;;6.55;100.00;101258.59;5036036;28;20033;-81
2021/11/16 06:44:12;;;;;;;41.97;22.15;;;6.00;99.90;;;6.56;100.00;101269.38;5036191;28;20030;-83
2021/11/16 06:46:41;;;;;;;44.15;23.35;;;5.90;99.90;;;6.56;100.00;101280.47;5018338;28;20424;-81
2021/11/16 06:49:11;;;;;;;43.15;22.35;;;5.90;99.90;;;6.57;100.00;101293.22;5035895;28;20449;-81
2021/11/16 06:51:43;;;;;;;43.17;22.52;;;6.00;99.90;;;6.57;100.00;101292.41;5018674;28;20037;-85
2021/11/16 06:54:22;;;;;;;40.53;22.35;;;5.90;99.90;;;6.54;100.00;101293.84;5018657;28;20097;-83
2021/11/16 06:56:52;;;;;;;44.05;22.55;;;5.90;99.90;;;6.57;100.00;101296.00;5018648;28;20033;-79
2021/11/16 06:59:24;;;;;;;44.92;22.20;;;5.90;99.90;;;6.56;100.00;101294.34;5036111;28;20136;-79
2021/11/16 07:01:52;;;;;;;41.60;21.25;;;5.90;99.90;;;6.55;100.00;101294.69;5018980;28;20057;-79
2021/11/16 07:04:18;;;;;;;48.53;23.65;;;5.90;99.90;;;6.50;100.00;101292.84;5037636;28;20109;-81
2021/11/16 07:06:50;;;;;;;46.72;22.48;;;5.90;99.90;;;6.56;100.00;101293.53;5036536;28;20025;-81
2021/11/16 07:09:21;;;;;;;45.97;24.38;;;5.90;99.90;;;6.59;100.00;101281.78;5036544;28;20022;-79
2021/11/16 07:11:54;;;;;;;46.78;23.00;;;5.90;99.90;;;6.54;100.00;101282.75;5017456;28;20045;-82
2021/11/16 07:14:38;;;;;;;47.15;22.65;;;5.90;99.90;;;6.51;100.00;101288.94;5017226;28;20048;-80
2021/11/16 07:17:10;;;;;;;47.13;23.25;;;5.90;99.90;;;6.48;100.00;101288.75;4987763;28;20044;-79
2021/11/16 07:19:46;;;;;;;46.33;22.77;;;5.90;99.90;;;6.44;100.00;101280.22;4985516;28;20404;-78
2021/11/16 07:22:30;;;;;;;48.63;23.55;;;5.80;99.90;;;6.44;100.00;101288.56;5034943;28;20030;-80
2021/11/16 07:25:10;;;;;;;43.60;22.55;;;5.80;99.90;;;6.43;100.00;101288.84;5001147;28;20067;-78
2021/11/16 07:27:52;;;;;;;43.20;23.50;;;5.80;99.90;;;6.41;100.00;101291.97;5019327;28;20572;-79
2021/11/16 07:30:28;;;;;;;44.20;22.15;;;5.80;99.90;;;6.41;100.00;101303.06;5018616;28;20060;-80
2021/11/16 07:33:02;;;;;;;49.33;22.88;;;5.80;99.90;;;6.39;100.00;101305.31;5037743;28;20025;-81
2021/11/16 07:35:34;;;;;;;44.60;22.15;;;5.80;99.90;;;6.42;100.00;101301.94;5003621;28;20124;-78
2021/11/16 07:38:09;;;;;;;50.40;23.83;;;5.80;99.90;;;6.42;100.00;101314.97;5041107;28;20091;-79
2021/11/16 07:40:41;;;;;;;56.00;23.20;;;5.80;99.90;;;6.42;100.00;101318.59;5025435;28;20034;-79
2021/11/16 07:43:14;;;;;;;47.25;22.52;;;5.80;99.90;;;6.39;100.00;101310.84;5025612;28;20408;-78
2021/11/16 07:45:54;;;;;;;50.50;24.13;;;5.80;99.90;;;6.38;100.00;101314.78;5025756;28;20036;-80
2021/11/16 07:48:28;;;;;;;48.55;24.73;;;5.80;99.90;;;6.40;100.00;101308.91;5041869;28;20029;-79
2021/11/16 07:51:02;;;;;;;55.42;26.25;;;5.80;99.90;;;6.35;100.00;101307.09;5009333;28;20030;-80
2021/11/16 07:53:54;;;;;;;54.90;25.17;;;5.70;99.90;;;6.37;100.00;101307.59;5025139;28;20029;-79
2021/11/16 07:56:24;;;;;;;60.85;26.30;;;5.80;99.90;;;6.38;100.00;101297.31;5038067;28;20045;-79
2021/11/16 07:58:59;;;;;;;66.45;28.75;;;5.80;99.90;;;6.41;100.00;101299.47;5017965;28;20030;-79
2021/11/16 08:01:44;;;;;;;74.53;29.57;;;5.70;99.90;;;6.36;100.00;101303.16;5017298;28;20030;-80
2021/11/16 08:14:59;;;;;;;63.22;27.98;;;5.70;99.90;;;6.35;100.00;101305.16;5038881;28;20089;-79
2021/11/16 08:17:27;;;;;;;75.93;30.35;;;5.70;99.90;;;6.41;100.00;101299.47;5038216;28;20060;-80
2021/11/16 08:20:13;;;;;;;71.38;31.85;;;5.70;99.90;;;6.43;100.00;101306.31;5022366;28;20029;-81
2021/11/16 08:22:41;;;;;;;64.10;29.17;;;5.80;99.90;;;6.43;100.00;101300.78;5022563;28;20034;-79
2021/11/16 08:25:10;;;;;;;62.45;28.92;;;5.80;99.90;;;6.42;100.00;101304.72;5037970;28;20121;-81
2021/11/16 08:27:45;;;;;;;75.28;32.88;;;5.80;99.90;;;6.42;100.00;101304.72;5037910;28;20131;-79
2021/11/16 08:30:22;;;;;;;68.72;28.92;;;5.80;99.90;;;6.44;100.00;101304.38;5039222;28;20050;-79
2021/11/16 08:32:57;;;;;;;65.18;30.13;;;5.80;99.90;;;6.44;100.00;101304.38;5004832;28;20033;-78
2021/11/16 08:35:25;;;;;;;63.22;29.08;;;5.80;99.90;;;6.43;100.00;101303.56;5039120;28;20025;-81
2021/11/16 08:38:00;;;;;;;70.13;30.45;;;5.80;99.90;;;6.46;100.00;101300.16;5021719;28;20033;-80
2021/11/16 08:40:34;;;;;;;65.25;28.90;;;5.80;99.90;;;6.43;100.00;101297.19;5021867;28;20026;-81
2021/11/16 08:43:14;;;;;;;68.15;30.52;;;5.80;99.90;;;6.42;100.00;101304.72;5021520;28;20048;-80
2021/11/16 08:45:48;;;;;;;74.78;32.17;;;5.80;99.90;;;6.42;100.00;101301.13;5019372;28;20037;-80
2021/11/16 08:48:23;;;;;;;72.80;29.92;;;5.80;99.90;;;6.43;100.00;101303.56;5019721;28;20025;-80
2021/11/16 08:50:58;;;;;;;70.53;30.63;;;5.80;99.90;;;6.44;100.00;101296.88;5021167;28;20029;-80
2021/11/16 08:53:34;;;;;;;77.85;31.58;;;5.70;99.90;;;6.41;100.00;101303.06;5038606;28;20029;-81
2021/11/16 08:56:26;;;;;;;72.93;32.28;;;5.70;99.90;;;6.40;100.00;101297.81;5022186;28;20049;-79
2021/11/16 08:58:53;;;;;;;78.05;32.83;;;5.80;99.90;;;6.41;100.00;101288.38;5037381;28;20064;-80
2021/11/16 09:01:22;;;;;;;80.63;32.20;;;5.70;99.90;;;6.42;100.00;101290.00;5020859;28;20021;-79
2021/11/16 09:03:48;;;;;;;74.70;32.58;;;5.80;99.90;;;6.43;100.00;101281.34;5026039;28;20029;-81
2021/11/16 09:06:25;;;;;;;73.95;32.90;;;5.80;99.90;;;6.44;100.00;101283.00;5026535;28;20064;-82
2021/11/16 09:09:10;;;;;;;83.18;34.42;;;5.80;99.90;;;6.48;100.00;101277.66;5037494;28;20067;-78
2021/11/16 09:11:52;;;;;;;74.32;32.83;;;5.80;99.90;;;6.48;100.00;101278.47;5004696;28;20124;-79
2021/11/16 09:14:18;;;;;;;81.45;33.47;;;5.80;99.90;;;6.51;100.00;101275.06;5020486;28;20051;-81
2021/11/16 09:16:44;;;;;;;74.47;33.60;;;5.80;99.90;;;6.48;100.00;101286.78;5036970;28;20053;-81
2021/11/16 09:19:31;;;;;;;78.85;33.40;;;5.80;99.90;;;6.46;100.00;101288.22;5037880;28;20116;-81
2021/11/16 09:21:59;;;;;;;77.90;29.73;;;5.80;99.90;;;6.47;100.00;101281.53;5001358;28;20036;-80
2021/11/16 09:24:38;;;;;;;81.00;33.88;;;5.80;99.90;;;6.48;100.00;101277.66;4999238;28;20033;-80
2021/11/16 09:29:36;;;;;;;79.05;33.50;;;5.80;99.90;;;6.50;100.00;101284.50;5017407;28;20034;-80
2021/11/16 09:32:22;;;;;;;84.78;35.22;;;5.80;99.90;;;6.53;100.00;101278.34;5000556;28;20092;-78
2021/11/16 09:34:52;;;;;;;81.63;35.67;;;5.90;99.90;;;6.54;100.00;101276.38;5001620;28;20308;-79
2021/11/16 09:37:24;;;;;;;80.55;33.35;;;5.80;99.90;;;6.55;100.00;101266.94;5037256;28;20041;-80
2021/11/16 09:39:59;;;;;;;77.18;33.45;;;5.90;99.90;;;6.58;100.00;101269.06;5005151;28;20033;-82
2021/11/16 09:42:33;;;;;;;75.93;31.80;;;5.90;99.90;;;6.63;100.00;101266.16;5035832;28;20152;-79
2021/11/16 09:45:09;;;;;;;73.20;31.27;;;5.90;99.90;;;6.66;100.00;101260.78;5018768;28;20032;-79
2021/11/16 09:47:41;;;;;;;70.55;33.05;;;5.90;99.90;;;6.62;100.00;101254.22;5004864;28;20025;-78
2021/11/16 09:50:16;;;;;;;70.88;32.30;;;5.90;99.90;;;6.65;100.00;101261.09;5019335;28;20048;-79
2021/11/16 09:53:03;;;;;;;70.60;31.63;;;5.90;99.90;;;6.65;100.00;101263.88;5021052;28;20109;-80
2021/11/16 09:55:36;;;;;;;55.58;27.63;;;5.90;99.90;;;6.63;100.00;101249.50;5038348;28;20111;-79
2021/11/16 09:58:07;;;;;;;62.92;29.77;;;5.90;99.90;;;6.63;100.00;101258.66;5020482;28;20385;-81
2021/11/16 10:00:39;;;;;;;68.00;29.33;;;5.90;99.90;;;6.62;100.00;101253.41;5019846;28;20033;-81
2021/11/16 10:03:14;;;;;;;57.35;25.25;;;5.90;99.90;;;6.64;100.00;101251.97;5020191;28;20025;-78
2021/11/16 10:06:06;;;;;;;58.50;26.35;;;5.90;99.90;;;6.64;100.00;101249.19;5037912;28;20465;-80
2021/11/16 10:08:33;;;;;;;54.28;25.40;;;5.90;99.90;;;6.65;100.00;101250.81;5031620;28;20046;-80
2021/11/16 10:10:59;;;;;;;53.85;25.63;;;6.00;99.90;;;6.66;100.00;101251.63;4999989;28;20489;-81
2021/11/16 10:13:31;;;;;;;56.05;25.63;;;6.00;99.90;;;6.69;100.00;101251.00;5018566;28;20041;-81
2021/11/16 10:16:02;;;;;;;55.92;27.90;;;6.00;99.90;;;6.72;100.00;101245.63;5014745;28;20057;-80
2021/11/16 10:18:31;;;;;;;56.25;24.90;;;6.00;99.90;;;6.70;100.00;101250.69;5002243;28;20018;-79
2021/11/16 10:20:58;;;;;;;57.42;24.48;;;6.00;99.90;;;6.65;100.00;101245.25;5024112;28;20056;-78
2021/11/16 10:23:40;;;;;;;61.05;27.77;;;6.00;99.90;;;6.66;100.00;101244.13;5017579;28;20030;-80
2021/11/16 10:26:10;;;;;;;52.72;23.38;;;6.00;99.90;;;6.66;100.00;101240.53;5000581;28;20090;-80
2021/11/16 10:28:43;;;;;;;53.10;25.40;;;6.00;99.90;;;6.66;100.00;101232.22;5000672;28;20038;-80
2021/11/16 10:31:10;;;;;;;52.90;25.88;;;5.90;99.90;;;6.66;100.00;101226.66;5021508;28;20102;-81
2021/11/16 10:33:49;;;;;;;62.45;26.13;;;6.00;99.90;;;6.67;100.00;101226.34;4998957;28;20121;-81
2021/11/16 10:36:18;;;;;;;50.13;24.70;;;6.00;99.90;;;6.68;100.00;101227.97;5013000;28;20030;-80
2021/11/16 10:38:56;;;;;;;56.75;26.38;;;6.00;99.90;;;6.67;100.00;101228.31;4998664;28;20057;-81
2021/11/16 10:41:31;;;;;;;56.20;25.73;;;6.00;99.90;;;6.67;100.00;101217.19;4997521;28;20041;-79
2021/11/16 10:44:16;;;;;;;57.03;26.02;;;6.00;99.90;;;6.68;100.00;101216.88;4997428;28;20041;-78
2021/11/16 10:46:45;;;;;;;52.90;24.83;;;6.00;99.90;;;6.68;100.00;101216.88;5015063;28;20038;-80
2021/11/16 10:49:19;;;;;;;54.17;25.65;;;6.00;99.90;;;6.68;100.00;101216.03;4981540;28;20038;-79
2021/11/16 10:51:48;;;;;;;55.63;25.23;;;6.00;99.90;;;6.68;100.00;101208.53;5015196;28;20054;-80